createdAt,value
2018-07-24T00:00:14.584Z,1010.06
2018-07-24T00:00:40.688Z,1010.05
2018-07-24T00:01:06.823Z,1010.05
2018-07-24T00:01:32.979Z,1010.07
2018-07-24T00:01:59.116Z,1010.04
2018-07-24T00:02:25.251Z,1010.06
2018-07-24T00:02:51.402Z,1010.03
2018-07-24T00:03:17.569Z,1010.05
2018-07-24T00:03:43.701Z,1010.02
2018-07-24T00:04:09.838Z,1010.02
2018-07-24T00:04:35.977Z,1010.05
2018-07-24T00:05:02.115Z,1010.04
2018-07-24T00:05:28.245Z,1010.01
2018-07-24T00:05:54.383Z,1010.02
2018-07-24T00:06:20.832Z,1010.02
2018-07-24T00:06:46.999Z,1010.03
2018-07-24T00:07:13.153Z,1010.05
2018-07-24T00:07:39.295Z,1010.03
2018-07-24T00:08:07.143Z,1010.01
2018-07-24T00:08:33.749Z,1010.02
2018-07-24T00:08:59.891Z,1010.02
2018-07-24T00:09:26.036Z,1010.01
2018-07-24T00:09:52.153Z,1010
2018-07-24T00:10:18.296Z,1010
2018-07-24T00:10:44.457Z,1010.02
2018-07-24T00:11:10.585Z,1009.99
2018-07-24T00:11:36.744Z,1009.99
2018-07-24T00:12:02.880Z,1009.99
2018-07-24T00:12:29.013Z,1009.99
2018-07-24T00:12:55.171Z,1010.01
2018-07-24T00:13:21.333Z,1010.02
2018-07-24T00:13:47.464Z,1010
2018-07-24T00:14:13.618Z,1010
2018-07-24T00:14:39.775Z,1010.01
2018-07-24T00:15:05.928Z,1009.99
2018-07-24T00:15:32.063Z,1010.01
2018-07-24T00:15:58.203Z,1010.02
2018-07-24T00:16:24.341Z,1010.01
2018-07-24T00:16:50.465Z,1010.03
2018-07-24T00:17:16.604Z,1010.03
2018-07-24T00:17:42.768Z,1010
2018-07-24T00:18:08.903Z,1010
2018-07-24T00:18:35.033Z,1009.99
2018-07-24T00:19:01.201Z,1009.98
2018-07-24T00:19:27.332Z,1010.01
2018-07-24T00:19:53.462Z,1010.01
2018-07-24T00:20:19.624Z,1010.03
2018-07-24T00:20:45.786Z,1010
2018-07-24T00:21:11.928Z,1010.02
2018-07-24T00:21:38.081Z,1009.98
2018-07-24T00:22:04.222Z,1009.98
2018-07-24T00:22:30.359Z,1009.97
2018-07-24T00:22:56.496Z,1009.94
2018-07-24T00:23:22.632Z,1010
2018-07-24T00:23:48.770Z,1009.98
2018-07-24T00:24:14.908Z,1009.98
2018-07-24T00:24:41.060Z,1009.98
2018-07-24T00:25:07.193Z,1009.98
2018-07-24T00:25:33.328Z,1009.96
2018-07-24T00:25:59.457Z,1009.96
2018-07-24T00:26:25.592Z,1009.97
2018-07-24T00:26:51.731Z,1009.98
2018-07-24T00:27:17.868Z,1009.97
2018-07-24T00:27:44.001Z,1009.95
2018-07-24T00:28:10.134Z,1009.93
2018-07-24T00:28:36.277Z,1009.94
2018-07-24T00:29:02.406Z,1009.94
2018-07-24T00:29:28.546Z,1009.96
2018-07-24T00:29:54.720Z,1009.96
2018-07-24T00:30:20.850Z,1009.94
2018-07-24T00:30:46.985Z,1009.91
2018-07-24T00:31:13.206Z,1009.96
2018-07-24T00:31:39.336Z,1009.93
2018-07-24T00:32:05.564Z,1009.92
2018-07-24T00:32:31.632Z,1009.91
2018-07-24T00:32:57.788Z,1009.91
2018-07-24T00:33:23.955Z,1009.9
2018-07-24T00:33:50.127Z,1009.89
2018-07-24T00:34:16.267Z,1009.9
2018-07-24T00:34:42.400Z,1009.92
2018-07-24T00:35:08.534Z,1009.9
2018-07-24T00:35:34.688Z,1009.9
2018-07-24T00:36:00.819Z,1009.86
2018-07-24T00:36:26.961Z,1009.87
2018-07-24T00:36:53.092Z,1009.88
2018-07-24T00:37:19.226Z,1009.87
2018-07-24T00:37:45.361Z,1009.86
2018-07-24T00:38:11.499Z,1009.85
2018-07-24T00:38:37.627Z,1009.85
2018-07-24T00:39:03.787Z,1009.86
2018-07-24T00:39:29.919Z,1009.82
2018-07-24T00:39:56.047Z,1009.83
2018-07-24T00:40:22.212Z,1009.82
2018-07-24T00:40:48.368Z,1009.87
2018-07-24T00:41:14.503Z,1009.82
2018-07-24T00:41:40.634Z,1009.82
2018-07-24T00:42:06.764Z,1009.83
2018-07-24T00:42:32.946Z,1009.81
2018-07-24T00:42:59.086Z,1009.82
2018-07-24T00:43:25.236Z,1009.8
2018-07-24T00:43:51.419Z,1009.78
2018-07-24T00:44:17.557Z,1009.79
2018-07-24T00:44:43.687Z,1009.83
2018-07-24T00:45:09.871Z,1009.81
2018-07-24T00:45:36.053Z,1009.79
2018-07-24T00:46:02.723Z,1009.8
2018-07-24T00:46:28.856Z,1009.78
2018-07-24T00:46:55.013Z,1009.77
2018-07-24T00:47:21.146Z,1009.78
2018-07-24T00:47:47.309Z,1009.78
2018-07-24T00:48:13.494Z,1009.79
2018-07-24T00:48:39.622Z,1009.81
2018-07-24T00:49:05.751Z,1009.79
2018-07-24T00:49:31.889Z,1009.79
2018-07-24T00:49:58.019Z,1009.78
2018-07-24T00:50:24.150Z,1009.79
2018-07-24T00:50:50.285Z,1009.82
2018-07-24T00:51:16.419Z,1009.8
2018-07-24T00:51:42.553Z,1009.8
2018-07-24T00:52:08.705Z,1009.79
2018-07-24T00:52:34.848Z,1009.77
2018-07-24T00:53:00.988Z,1009.81
2018-07-24T00:53:27.140Z,1009.78
2018-07-24T00:53:53.303Z,1009.8
2018-07-24T00:54:19.571Z,1009.77
2018-07-24T00:54:45.574Z,1009.77
2018-07-24T00:55:11.730Z,1009.78
2018-07-24T00:55:37.863Z,1009.79
2018-07-24T00:56:04.000Z,1009.77
2018-07-24T00:56:30.160Z,1009.76
2018-07-24T00:56:56.287Z,1009.77
2018-07-24T00:57:22.420Z,1009.75
2018-07-24T00:57:48.560Z,1009.73
2018-07-24T00:58:14.690Z,1009.78
2018-07-24T00:58:40.823Z,1009.74
2018-07-24T00:59:06.962Z,1009.75
2018-07-24T00:59:33.126Z,1009.75
2018-07-24T00:59:59.283Z,1009.77
2018-07-24T01:00:25.437Z,1009.75
2018-07-24T01:00:51.575Z,1009.77
2018-07-24T01:01:17.709Z,1009.77
2018-07-24T01:01:43.877Z,1009.77
2018-07-24T01:02:10.031Z,1009.76
2018-07-24T01:02:36.166Z,1009.71
2018-07-24T01:03:02.289Z,1009.71
2018-07-24T01:03:28.455Z,1009.76
2018-07-24T01:03:54.584Z,1009.71
2018-07-24T01:04:20.714Z,1009.74
2018-07-24T01:04:46.849Z,1009.73
2018-07-24T01:05:12.985Z,1009.69
2018-07-24T01:05:39.140Z,1009.71
2018-07-24T01:06:05.283Z,1009.64
2018-07-24T01:06:31.418Z,1009.68
2018-07-24T01:06:57.554Z,1009.68
2018-07-24T01:07:23.728Z,1009.7
2018-07-24T01:07:49.862Z,1009.67
2018-07-24T01:08:15.995Z,1009.67
2018-07-24T01:08:42.162Z,1009.67
2018-07-24T01:09:08.878Z,1009.69
2018-07-24T01:09:37.167Z,1009.64
2018-07-24T01:10:04.710Z,1009.66
2018-07-24T01:10:33.130Z,1009.62
2018-07-24T01:11:02.549Z,1009.64
2018-07-24T01:11:28.685Z,1009.61
2018-07-24T01:11:54.811Z,1009.61
2018-07-24T01:12:20.954Z,1009.63
2018-07-24T01:12:47.086Z,1009.63
2018-07-24T01:13:13.242Z,1009.62
2018-07-24T01:13:39.391Z,1009.63
2018-07-24T01:14:05.529Z,1009.6
2018-07-24T01:14:31.667Z,1009.63
2018-07-24T01:14:57.805Z,1009.6
2018-07-24T01:15:23.933Z,1009.6
2018-07-24T01:15:50.069Z,1009.61
2018-07-24T01:16:16.200Z,1009.61
2018-07-24T01:16:42.339Z,1009.63
2018-07-24T01:17:08.471Z,1009.64
2018-07-24T01:17:34.613Z,1009.63
2018-07-24T01:18:00.754Z,1009.63
2018-07-24T01:18:26.883Z,1009.6
2018-07-24T01:18:53.018Z,1009.62
2018-07-24T01:19:19.155Z,1009.65
2018-07-24T01:19:45.282Z,1009.62
2018-07-24T01:20:11.419Z,1009.66
2018-07-24T01:20:37.554Z,1009.66
2018-07-24T01:21:03.691Z,1009.66
2018-07-24T01:21:29.832Z,1009.67
2018-07-24T01:21:55.966Z,1009.67
2018-07-24T01:22:22.097Z,1009.69
2018-07-24T01:22:48.240Z,1009.69
2018-07-24T01:23:14.368Z,1009.67
2018-07-24T01:23:40.524Z,1009.69
2018-07-24T01:24:06.657Z,1009.69
2018-07-24T01:24:32.794Z,1009.69
2018-07-24T01:24:58.922Z,1009.68
2018-07-24T01:25:25.055Z,1009.71
2018-07-24T01:25:51.197Z,1009.69
2018-07-24T01:26:17.348Z,1009.69
2018-07-24T01:26:43.481Z,1009.66
2018-07-24T01:27:09.619Z,1009.7
2018-07-24T01:27:35.790Z,1009.72
2018-07-24T01:28:01.918Z,1009.68
2018-07-24T01:28:28.057Z,1009.68
2018-07-24T01:28:54.189Z,1009.69
2018-07-24T01:29:20.346Z,1009.7
2018-07-24T01:29:46.486Z,1009.72
2018-07-24T01:30:12.620Z,1009.69
2018-07-24T01:30:38.756Z,1009.73
2018-07-24T01:31:04.919Z,1009.7
2018-07-24T01:31:31.051Z,1009.7
2018-07-24T01:31:57.221Z,1009.69
2018-07-24T01:32:23.352Z,1009.68
2018-07-24T01:32:49.514Z,1009.71
2018-07-24T01:33:15.655Z,1009.71
2018-07-24T01:33:41.796Z,1009.68
2018-07-24T01:34:07.937Z,1009.67
2018-07-24T01:34:34.072Z,1009.69
2018-07-24T01:35:00.218Z,1009.69
2018-07-24T01:35:26.403Z,1009.69
2018-07-24T01:35:52.563Z,1009.69
2018-07-24T01:36:18.715Z,1009.69
2018-07-24T01:36:44.860Z,1009.67
2018-07-24T01:37:11.014Z,1009.68
2018-07-24T01:37:37.158Z,1009.68
2018-07-24T01:38:03.301Z,1009.69
2018-07-24T01:38:29.489Z,1009.69
2018-07-24T01:38:55.632Z,1009.69
2018-07-24T01:39:21.793Z,1009.68
2018-07-24T01:39:47.983Z,1009.67
2018-07-24T01:40:14.139Z,1009.65
2018-07-24T01:40:40.272Z,1009.68
2018-07-24T01:41:06.417Z,1009.67
2018-07-24T01:41:32.562Z,1009.66
2018-07-24T01:41:58.715Z,1009.66
2018-07-24T01:42:24.855Z,1009.65
2018-07-24T01:42:51.021Z,1009.68
2018-07-24T01:43:17.185Z,1009.67
2018-07-24T01:43:43.328Z,1009.66
2018-07-24T01:44:09.465Z,1009.66
2018-07-24T01:44:35.605Z,1009.68
2018-07-24T01:45:01.742Z,1009.67
2018-07-24T01:45:27.887Z,1009.66
2018-07-24T01:45:54.023Z,1009.64
2018-07-24T01:46:20.162Z,1009.64
2018-07-24T01:46:46.325Z,1009.66
2018-07-24T01:47:12.469Z,1009.65
2018-07-24T01:47:38.612Z,1009.67
2018-07-24T01:48:04.782Z,1009.63
2018-07-24T01:48:30.913Z,1009.65
2018-07-24T01:48:57.054Z,1009.66
2018-07-24T01:49:23.196Z,1009.66
2018-07-24T01:49:49.332Z,1009.68
2018-07-24T01:50:15.475Z,1009.68
2018-07-24T01:50:41.611Z,1009.63
2018-07-24T01:51:07.780Z,1009.64
2018-07-24T01:51:33.924Z,1009.65
2018-07-24T01:52:00.103Z,1009.66
2018-07-24T01:52:26.261Z,1009.62
2018-07-24T01:52:52.401Z,1009.62
2018-07-24T01:53:18.537Z,1009.6
2018-07-24T01:53:44.697Z,1009.59
2018-07-24T01:54:10.840Z,1009.59
2018-07-24T01:54:36.977Z,1009.63
2018-07-24T01:55:03.113Z,1009.64
2018-07-24T01:55:29.249Z,1009.64
2018-07-24T01:55:55.391Z,1009.64
2018-07-24T01:56:21.526Z,1009.67
2018-07-24T01:56:47.669Z,1009.66
2018-07-24T01:57:13.807Z,1009.65
2018-07-24T01:57:39.972Z,1009.66
2018-07-24T01:58:06.102Z,1009.65
2018-07-24T01:58:32.280Z,1009.67
2018-07-24T01:58:58.410Z,1009.68
2018-07-24T01:59:24.553Z,1009.67
2018-07-24T01:59:50.698Z,1009.67
2018-07-24T02:00:16.835Z,1009.65
2018-07-24T02:00:42.972Z,1009.66
2018-07-24T02:01:09.108Z,1009.71
2018-07-24T02:01:35.244Z,1009.69
2018-07-24T02:02:01.383Z,1009.72
2018-07-24T02:02:27.542Z,1009.67
2018-07-24T02:02:53.706Z,1009.68
2018-07-24T02:03:19.850Z,1009.68
2018-07-24T02:03:45.986Z,1009.7
2018-07-24T02:04:12.133Z,1009.67
2018-07-24T02:04:38.272Z,1009.68
2018-07-24T02:05:04.403Z,1009.66
2018-07-24T02:05:30.542Z,1009.67
2018-07-24T02:05:56.687Z,1009.66
2018-07-24T02:06:22.822Z,1009.63
2018-07-24T02:06:48.965Z,1009.64
2018-07-24T02:07:15.105Z,1009.66
2018-07-24T02:07:41.248Z,1009.62
2018-07-24T02:08:07.415Z,1009.63
2018-07-24T02:08:33.549Z,1009.65
2018-07-24T02:08:59.687Z,1009.66
2018-07-24T02:09:25.826Z,1009.66
2018-07-24T02:09:51.961Z,1009.63
2018-07-24T02:10:18.107Z,1009.63
2018-07-24T02:10:44.244Z,1009.63
2018-07-24T02:11:10.386Z,1009.61
2018-07-24T02:11:36.545Z,1009.68
2018-07-24T02:12:02.686Z,1009.65
2018-07-24T02:12:28.821Z,1009.64
2018-07-24T02:12:54.967Z,1009.63
2018-07-24T02:13:21.127Z,1009.63
2018-07-24T02:13:47.273Z,1009.66
2018-07-24T02:14:13.410Z,1009.62
2018-07-24T02:14:39.571Z,1009.64
2018-07-24T02:15:05.741Z,1009.61
2018-07-24T02:15:31.901Z,1009.65
2018-07-24T02:15:58.048Z,1009.66
2018-07-24T02:16:24.216Z,1009.64
2018-07-24T02:16:50.402Z,1009.63
2018-07-24T02:17:16.537Z,1009.67
2018-07-24T02:17:42.672Z,1009.63
2018-07-24T02:18:08.815Z,1009.67
2018-07-24T02:18:34.979Z,1009.64
2018-07-24T02:19:01.115Z,1009.61
2018-07-24T02:19:27.259Z,1009.61
2018-07-24T02:19:53.400Z,1009.66
2018-07-24T02:20:19.533Z,1009.62
2018-07-24T02:20:45.671Z,1009.65
2018-07-24T02:21:11.814Z,1009.63
2018-07-24T02:21:37.950Z,1009.66
2018-07-24T02:22:04.093Z,1009.64
2018-07-24T02:22:30.224Z,1009.63
2018-07-24T02:22:56.374Z,1009.61
2018-07-24T02:23:22.535Z,1009.65
2018-07-24T02:23:48.668Z,1009.65
2018-07-24T02:24:14.839Z,1009.61
2018-07-24T02:24:40.974Z,1009.64
2018-07-24T02:25:07.108Z,1009.61
2018-07-24T02:25:33.276Z,1009.6
2018-07-24T02:25:59.414Z,1009.59
2018-07-24T02:26:25.576Z,1009.59
2018-07-24T02:26:51.715Z,1009.59
2018-07-24T02:27:17.851Z,1009.59
2018-07-24T02:27:43.989Z,1009.59
2018-07-24T02:28:10.133Z,1009.57
2018-07-24T02:28:36.268Z,1009.61
2018-07-24T02:29:02.408Z,1009.57
2018-07-24T02:29:28.594Z,1009.6
2018-07-24T02:29:54.729Z,1009.59
2018-07-24T02:30:20.872Z,1009.57
2018-07-24T02:30:47.060Z,1009.59
2018-07-24T02:31:13.197Z,1009.62
2018-07-24T02:31:39.370Z,1009.58
2018-07-24T02:32:05.527Z,1009.6
2018-07-24T02:32:31.703Z,1009.6
2018-07-24T02:32:57.848Z,1009.61
2018-07-24T02:33:23.984Z,1009.6
2018-07-24T02:33:50.173Z,1009.58
2018-07-24T02:34:16.366Z,1009.62
2018-07-24T02:34:42.527Z,1009.59
2018-07-24T02:35:08.727Z,1009.64
2018-07-24T02:35:34.877Z,1009.6
2018-07-24T02:36:01.032Z,1009.67
2018-07-24T02:36:27.181Z,1009.67
2018-07-24T02:36:53.342Z,1009.65
2018-07-24T02:37:19.533Z,1009.69
2018-07-24T02:37:45.668Z,1009.68
2018-07-24T02:38:11.810Z,1009.68
2018-07-24T02:38:38.016Z,1009.72
2018-07-24T02:39:04.153Z,1009.69
2018-07-24T02:39:30.375Z,1009.65
2018-07-24T02:39:56.479Z,1009.65
2018-07-24T02:40:22.623Z,1009.69
2018-07-24T02:40:48.805Z,1009.62
2018-07-24T02:41:14.967Z,1009.65
2018-07-24T02:41:41.146Z,1009.63
2018-07-24T02:42:07.324Z,1009.62
2018-07-24T02:42:33.445Z,1009.64
2018-07-24T02:42:59.596Z,1009.59
2018-07-24T02:43:25.741Z,1009.61
2018-07-24T02:43:51.927Z,1009.59
2018-07-24T02:44:18.105Z,1009.6
2018-07-24T02:44:44.254Z,1009.58
2018-07-24T02:45:10.414Z,1009.61
2018-07-24T02:45:36.600Z,1009.61
2018-07-24T02:46:02.734Z,1009.6
2018-07-24T02:46:28.901Z,1009.6
2018-07-24T02:46:55.064Z,1009.59
2018-07-24T02:47:21.208Z,1009.62
2018-07-24T02:47:47.355Z,1009.58
2018-07-24T02:48:13.508Z,1009.58
2018-07-24T02:48:39.673Z,1009.6
2018-07-24T02:49:05.819Z,1009.57
2018-07-24T02:49:31.965Z,1009.58
2018-07-24T02:49:58.125Z,1009.55
2018-07-24T02:50:24.312Z,1009.61
2018-07-24T02:50:50.472Z,1009.58
2018-07-24T02:51:16.612Z,1009.61
2018-07-24T02:51:42.802Z,1009.57
2018-07-24T02:52:08.977Z,1009.58
2018-07-24T02:52:35.166Z,1009.57
2018-07-24T02:53:01.302Z,1009.6
2018-07-24T02:53:27.466Z,1009.59
2018-07-24T02:53:53.604Z,1009.6
2018-07-24T02:54:19.776Z,1009.62
2018-07-24T02:54:45.921Z,1009.59
2018-07-24T02:55:12.080Z,1009.6
2018-07-24T02:55:38.241Z,1009.57
2018-07-24T02:56:04.428Z,1009.58
2018-07-24T02:56:30.595Z,1009.61
2018-07-24T02:56:56.731Z,1009.57
2018-07-24T02:57:22.897Z,1009.56
2018-07-24T02:57:49.036Z,1009.56
2018-07-24T02:58:15.178Z,1009.58
2018-07-24T02:58:41.336Z,1009.55
2018-07-24T02:59:07.528Z,1009.59
2018-07-24T02:59:33.687Z,1009.58
2018-07-24T02:59:59.829Z,1009.57
2018-07-24T03:00:25.977Z,1009.61
2018-07-24T03:00:52.117Z,1009.62
2018-07-24T03:01:18.281Z,1009.62
2018-07-24T03:01:44.427Z,1009.61
2018-07-24T03:02:10.560Z,1009.6
2018-07-24T03:02:36.704Z,1009.62
2018-07-24T03:03:02.991Z,1009.6
2018-07-24T03:03:29.386Z,1009.65
2018-07-24T03:03:55.638Z,1009.62
2018-07-24T03:04:21.977Z,1009.63
2018-07-24T03:04:48.183Z,1009.61
2018-07-24T03:05:14.347Z,1009.62
2018-07-24T03:05:40.513Z,1009.62
2018-07-24T03:06:06.676Z,1009.63
2018-07-24T03:06:32.819Z,1009.65
2018-07-24T03:06:58.959Z,1009.63
2018-07-24T03:07:25.097Z,1009.63
2018-07-24T03:07:51.291Z,1009.62
2018-07-24T03:08:17.473Z,1009.62
2018-07-24T03:08:43.661Z,1009.64
2018-07-24T03:09:09.820Z,1009.61
2018-07-24T03:09:35.975Z,1009.63
2018-07-24T03:10:02.132Z,1009.64
2018-07-24T03:10:28.274Z,1009.61
2018-07-24T03:10:54.431Z,1009.64
2018-07-24T03:11:20.592Z,1009.62
2018-07-24T03:11:46.755Z,1009.61
2018-07-24T03:12:12.893Z,1009.59
2018-07-24T03:12:39.028Z,1009.61
2018-07-24T03:13:05.176Z,1009.61
2018-07-24T03:13:31.331Z,1009.62
2018-07-24T03:13:57.496Z,1009.65
2018-07-24T03:14:23.685Z,1009.62
2018-07-24T03:14:49.854Z,1009.62
2018-07-24T03:15:16.018Z,1009.58
2018-07-24T03:15:42.204Z,1009.62
2018-07-24T03:16:08.405Z,1009.63
2018-07-24T03:16:34.520Z,1009.65
2018-07-24T03:17:00.683Z,1009.64
2018-07-24T03:17:26.851Z,1009.64
2018-07-24T03:17:53.012Z,1009.62
2018-07-24T03:18:19.206Z,1009.62
2018-07-24T03:18:45.349Z,1009.64
2018-07-24T03:19:11.535Z,1009.65
2018-07-24T03:19:37.674Z,1009.63
2018-07-24T03:20:03.847Z,1009.61
2018-07-24T03:20:30.006Z,1009.6
2018-07-24T03:20:56.198Z,1009.62
2018-07-24T03:21:22.352Z,1009.62
2018-07-24T03:21:48.524Z,1009.6
2018-07-24T03:22:14.663Z,1009.61
2018-07-24T03:22:40.806Z,1009.59
2018-07-24T03:23:06.966Z,1009.61
2018-07-24T03:23:33.111Z,1009.64
2018-07-24T03:23:59.294Z,1009.63
2018-07-24T03:24:25.426Z,1009.61
2018-07-24T03:24:51.645Z,1009.59
2018-07-24T03:25:17.832Z,1009.59
2018-07-24T03:25:43.992Z,1009.62
2018-07-24T03:26:10.153Z,1009.6
2018-07-24T03:26:36.328Z,1009.59
2018-07-24T03:27:02.433Z,1009.61
2018-07-24T03:27:28.572Z,1009.62
2018-07-24T03:27:54.714Z,1009.6
2018-07-24T03:28:20.851Z,1009.61
2018-07-24T03:28:46.992Z,1009.61
2018-07-24T03:29:13.132Z,1009.63
2018-07-24T03:29:39.273Z,1009.62
2018-07-24T03:30:05.456Z,1009.67
2018-07-24T03:30:31.607Z,1009.63
2018-07-24T03:30:57.779Z,1009.63
2018-07-24T03:31:23.967Z,1009.61
2018-07-24T03:31:50.199Z,1009.61
2018-07-24T03:32:16.391Z,1009.63
2018-07-24T03:32:42.522Z,1009.63
2018-07-24T03:33:08.669Z,1009.61
2018-07-24T03:33:34.825Z,1009.59
2018-07-24T03:34:00.969Z,1009.64
2018-07-24T03:34:27.131Z,1009.64
2018-07-24T03:34:53.302Z,1009.63
2018-07-24T03:35:19.438Z,1009.67
2018-07-24T03:35:45.580Z,1009.64
2018-07-24T03:36:11.722Z,1009.68
2018-07-24T03:36:37.855Z,1009.67
2018-07-24T03:37:04.016Z,1009.64
2018-07-24T03:37:30.179Z,1009.65
2018-07-24T03:37:56.319Z,1009.66
2018-07-24T03:38:22.479Z,1009.7
2018-07-24T03:38:48.618Z,1009.66
2018-07-24T03:39:14.760Z,1009.7
2018-07-24T03:39:40.970Z,1009.68
2018-07-24T03:40:07.067Z,1009.7
2018-07-24T03:40:33.198Z,1009.71
2018-07-24T03:40:59.347Z,1009.7
2018-07-24T03:41:25.507Z,1009.7
2018-07-24T03:41:51.648Z,1009.72
2018-07-24T03:42:17.785Z,1009.68
2018-07-24T03:42:43.931Z,1009.69
2018-07-24T03:43:10.090Z,1009.7
2018-07-24T03:43:36.230Z,1009.7
2018-07-24T03:44:02.370Z,1009.7
2018-07-24T03:44:28.515Z,1009.72
2018-07-24T03:44:54.652Z,1009.71
2018-07-24T03:45:20.811Z,1009.7
2018-07-24T03:45:46.971Z,1009.72
2018-07-24T03:46:13.131Z,1009.7
2018-07-24T03:46:39.269Z,1009.7
2018-07-24T03:47:05.417Z,1009.68
2018-07-24T03:47:31.553Z,1009.7
2018-07-24T03:47:57.688Z,1009.71
2018-07-24T03:48:23.826Z,1009.71
2018-07-24T03:48:49.964Z,1009.72
2018-07-24T03:49:16.127Z,1009.72
2018-07-24T03:49:42.286Z,1009.72
2018-07-24T03:50:08.431Z,1009.71
2018-07-24T03:50:34.564Z,1009.73
2018-07-24T03:51:00.735Z,1009.69
2018-07-24T03:51:26.873Z,1009.74
2018-07-24T03:51:53.012Z,1009.75
2018-07-24T03:52:19.158Z,1009.73
2018-07-24T03:52:45.298Z,1009.73
2018-07-24T03:53:11.460Z,1009.74
2018-07-24T03:53:37.598Z,1009.74
2018-07-24T03:54:03.733Z,1009.75
2018-07-24T03:54:29.891Z,1009.73
2018-07-24T03:54:56.040Z,1009.73
2018-07-24T03:55:22.176Z,1009.79
2018-07-24T03:55:48.317Z,1009.77
2018-07-24T03:56:14.478Z,1009.74
2018-07-24T03:56:40.608Z,1009.8
2018-07-24T03:57:06.743Z,1009.8
2018-07-24T03:57:32.906Z,1009.77
2018-07-24T03:57:59.102Z,1009.79
2018-07-24T03:58:25.217Z,1009.79
2018-07-24T03:58:51.361Z,1009.81
2018-07-24T03:59:17.504Z,1009.77
2018-07-24T03:59:43.634Z,1009.8
2018-07-24T04:00:09.799Z,1009.78
2018-07-24T04:00:35.963Z,1009.81
2018-07-24T04:01:02.132Z,1009.81
2018-07-24T04:01:28.265Z,1009.82
2018-07-24T04:01:54.409Z,1009.82
2018-07-24T04:02:20.617Z,1009.82
2018-07-24T04:02:46.709Z,1009.82
2018-07-24T04:03:12.849Z,1009.8
2018-07-24T04:03:38.988Z,1009.82
2018-07-24T04:04:05.133Z,1009.84
2018-07-24T04:04:31.275Z,1009.8
2018-07-24T04:04:57.430Z,1009.82
2018-07-24T04:05:23.572Z,1009.83
2018-07-24T04:05:49.707Z,1009.86
2018-07-24T04:06:15.842Z,1009.81
2018-07-24T04:06:41.977Z,1009.8
2018-07-24T04:07:08.120Z,1009.8
2018-07-24T04:07:34.278Z,1009.83
2018-07-24T04:08:00.444Z,1009.81
2018-07-24T04:08:26.578Z,1009.8
2018-07-24T04:08:52.721Z,1009.83
2018-07-24T04:09:18.860Z,1009.82
2018-07-24T04:09:44.993Z,1009.83
2018-07-24T04:10:11.138Z,1009.84
2018-07-24T04:10:37.281Z,1009.8
2018-07-24T04:11:03.455Z,1009.86
2018-07-24T04:11:29.594Z,1009.84
2018-07-24T04:11:55.762Z,1009.83
2018-07-24T04:12:21.897Z,1009.81
2018-07-24T04:12:48.064Z,1009.83
2018-07-24T04:13:14.221Z,1009.84
2018-07-24T04:13:40.361Z,1009.84
2018-07-24T04:14:06.500Z,1009.87
2018-07-24T04:14:32.664Z,1009.85
2018-07-24T04:14:58.810Z,1009.82
2018-07-24T04:15:24.944Z,1009.86
2018-07-24T04:15:51.110Z,1009.83
2018-07-24T04:16:17.246Z,1009.82
2018-07-24T04:16:43.395Z,1009.82
2018-07-24T04:17:09.527Z,1009.84
2018-07-24T04:17:35.677Z,1009.82
2018-07-24T04:18:01.811Z,1009.82
2018-07-24T04:18:27.956Z,1009.82
2018-07-24T04:18:54.105Z,1009.8
2018-07-24T04:19:20.244Z,1009.83
2018-07-24T04:19:46.380Z,1009.8
2018-07-24T04:20:12.544Z,1009.81
2018-07-24T04:20:38.700Z,1009.84
2018-07-24T04:21:04.840Z,1009.83
2018-07-24T04:21:31.004Z,1009.81
2018-07-24T04:21:57.147Z,1009.87
2018-07-24T04:22:23.279Z,1009.82
2018-07-24T04:22:49.448Z,1009.83
2018-07-24T04:23:15.635Z,1009.85
2018-07-24T04:23:41.795Z,1009.83
2018-07-24T04:24:07.961Z,1009.85
2018-07-24T04:24:34.127Z,1009.83
2018-07-24T04:25:00.316Z,1009.81
2018-07-24T04:25:26.472Z,1009.85
2018-07-24T04:25:52.632Z,1009.8
2018-07-24T04:26:18.776Z,1009.79
2018-07-24T04:26:44.934Z,1009.81
2018-07-24T04:27:11.064Z,1009.8
2018-07-24T04:27:37.204Z,1009.81
2018-07-24T04:28:03.370Z,1009.79
2018-07-24T04:28:29.509Z,1009.81
2018-07-24T04:28:55.644Z,1009.81
2018-07-24T04:29:21.788Z,1009.79
2018-07-24T04:29:47.931Z,1009.78
2018-07-24T04:30:14.109Z,1009.79
2018-07-24T04:30:40.299Z,1009.78
2018-07-24T04:31:06.482Z,1009.82
2018-07-24T04:31:32.567Z,1009.78
2018-07-24T04:31:58.736Z,1009.8
2018-07-24T04:32:24.924Z,1009.8
2018-07-24T04:32:51.069Z,1009.78
2018-07-24T04:33:17.307Z,1009.79
2018-07-24T04:33:43.474Z,1009.81
2018-07-24T04:34:09.620Z,1009.82
2018-07-24T04:34:35.797Z,1009.84
2018-07-24T04:35:01.944Z,1009.8
2018-07-24T04:35:28.085Z,1009.82
2018-07-24T04:35:54.225Z,1009.78
2018-07-24T04:36:20.363Z,1009.77
2018-07-24T04:36:46.507Z,1009.78
2018-07-24T04:37:12.642Z,1009.81
2018-07-24T04:37:38.787Z,1009.8
2018-07-24T04:38:04.946Z,1009.8
2018-07-24T04:38:31.083Z,1009.75
2018-07-24T04:38:57.225Z,1009.81
2018-07-24T04:39:23.369Z,1009.79
2018-07-24T04:39:49.564Z,1009.83
2018-07-24T04:40:15.737Z,1009.81
2018-07-24T04:40:41.841Z,1009.79
2018-07-24T04:41:08.022Z,1009.77
2018-07-24T04:41:34.152Z,1009.77
2018-07-24T04:42:00.317Z,1009.8
2018-07-24T04:42:26.481Z,1009.79
2018-07-24T04:42:52.617Z,1009.78
2018-07-24T04:43:18.751Z,1009.73
2018-07-24T04:43:44.896Z,1009.78
2018-07-24T04:44:11.032Z,1009.77
2018-07-24T04:44:37.196Z,1009.78
2018-07-24T04:45:03.332Z,1009.77
2018-07-24T04:45:29.470Z,1009.75
2018-07-24T04:45:55.611Z,1009.78
2018-07-24T04:46:21.780Z,1009.74
2018-07-24T04:46:47.943Z,1009.75
2018-07-24T04:47:14.089Z,1009.74
2018-07-24T04:47:40.224Z,1009.77
2018-07-24T04:48:06.366Z,1009.77
2018-07-24T04:48:32.572Z,1009.79
2018-07-24T04:48:58.633Z,1009.79
2018-07-24T04:49:24.778Z,1009.75
2018-07-24T04:49:50.939Z,1009.74
2018-07-24T04:50:17.072Z,1009.79
2018-07-24T04:50:43.216Z,1009.8
2018-07-24T04:51:09.355Z,1009.75
2018-07-24T04:51:35.489Z,1009.75
2018-07-24T04:52:01.631Z,1009.79
2018-07-24T04:52:27.772Z,1009.77
2018-07-24T04:52:53.906Z,1009.79
2018-07-24T04:53:20.044Z,1009.79
2018-07-24T04:53:46.183Z,1009.82
2018-07-24T04:54:12.341Z,1009.77
2018-07-24T04:54:38.499Z,1009.79
2018-07-24T04:55:04.657Z,1009.82
2018-07-24T04:55:30.801Z,1009.79
2018-07-24T04:55:56.964Z,1009.8
2018-07-24T04:56:23.100Z,1009.78
2018-07-24T04:56:49.244Z,1009.79
2018-07-24T04:57:15.401Z,1009.79
2018-07-24T04:57:41.553Z,1009.81
2018-07-24T04:58:07.688Z,1009.82
2018-07-24T04:58:33.832Z,1009.77
2018-07-24T04:58:59.965Z,1009.8
2018-07-24T04:59:26.109Z,1009.77
2018-07-24T04:59:52.298Z,1009.77
2018-07-24T05:00:18.436Z,1009.78
2018-07-24T05:00:44.606Z,1009.83
2018-07-24T05:01:10.770Z,1009.82
2018-07-24T05:01:36.931Z,1009.79
2018-07-24T05:02:03.072Z,1009.8
2018-07-24T05:02:29.250Z,1009.78
2018-07-24T05:02:55.352Z,1009.81
2018-07-24T05:03:21.577Z,1009.79
2018-07-24T05:03:47.663Z,1009.81
2018-07-24T05:04:13.821Z,1009.79
2018-07-24T05:04:39.953Z,1009.76
2018-07-24T05:05:06.093Z,1009.73
2018-07-24T05:05:32.232Z,1009.74
2018-07-24T05:05:58.373Z,1009.7
2018-07-24T05:06:24.517Z,1009.71
2018-07-24T05:06:50.650Z,1009.68
2018-07-24T05:07:16.787Z,1009.73
2018-07-24T05:07:42.926Z,1009.69
2018-07-24T05:08:09.070Z,1009.71
2018-07-24T05:08:35.202Z,1009.71
2018-07-24T05:09:01.365Z,1009.74
2018-07-24T05:09:27.510Z,1009.72
2018-07-24T05:09:53.650Z,1009.76
2018-07-24T05:10:19.821Z,1009.73
2018-07-24T05:10:45.970Z,1009.8
2018-07-24T05:11:12.162Z,1009.74
2018-07-24T05:11:38.325Z,1009.74
2018-07-24T05:12:04.469Z,1009.77
2018-07-24T05:12:30.625Z,1009.75
2018-07-24T05:12:56.764Z,1009.78
2018-07-24T05:13:22.900Z,1009.77
2018-07-24T05:13:49.067Z,1009.78
2018-07-24T05:14:15.220Z,1009.78
2018-07-24T05:14:41.361Z,1009.77
2018-07-24T05:15:07.506Z,1009.76
2018-07-24T05:15:33.651Z,1009.74
2018-07-24T05:15:59.788Z,1009.75
2018-07-24T05:16:25.927Z,1009.77
2018-07-24T05:16:52.190Z,1009.75
2018-07-24T05:17:18.218Z,1009.75
2018-07-24T05:17:44.361Z,1009.76